Airfield :
LOGIN :

Register | Disclaimer

   EN    FR    IT 

 










Legend :    VFR   Marginal VFR   IFR   Intensive IFR   Very Intensive IFR
Visi :
Ceiling :
>= 8 km
>= 3000ft
5 to 8 km
1000 to 3000 ft
1500m to 5 km
500 to 1000 ft
800 to 1500m
200 to 500 ft
< 800m
< 200 ft
Symbols :   Thunderstorms  Fog  Heavy snow  Heavy precipitations  Wind > 20 kt
SIGMETs :     Misc.  Thunderstorms  Icing  Turbulence  Mountain Waves  Volcanic Ashes






- Airport Elevation : 505 ft
- IATA code : SXB


LFST - Strasbourg

CURRENT METAR :
  • 261030Z AUTO 21004KT 2600 BR OVC004 M00/M01 Q1034 TEMPO BKN016 BECMG 8000 NSW

EXPIRED METARs :
  • 261000Z AUTO 21004KT 3200 BR OVC004 M00/M01 Q1034 BECMG 8000 NSW OVC012
  • 260930Z AUTO VRB03KT 3000 BR OVC003 M00/M01 Q1034 BECMG 8000 NSW OVC012
  • 260900Z AUTO 24003KT 3100 BR OVC004 M01/M01 Q1034 TEMPO VV/// BECMG 8000 NSW
  • 260830Z AUTO 23003KT 3400 BR OVC005 M01/M01 Q1034 TEMPO VV/// BECMG 8000 NSW
  • 260800Z AUTO VRB03KT 3700 BR BKN004 OVC009 M01/M02 Q1034 TEMPO 0500 FZFG VV///
  • 260730Z AUTO VRB02KT 3600 BR OVC004 M01/M01 Q1033 TEMPO 0500 FZFG VV///

TAF TAF LFST
Valid from the 26 at 06:00 until the 27 at 06:00 UTC


260500Z 2606/2706 VRB03KT 4000 BR OVC003
PROB40
TEMPO 2606/2610 0500 FZFG VV///
BECMG 2610/2612 8000 NSW OVC012
PROB40
TEMPO 2612/2618 BKN016
TEMPO 2700/2706 1200 BR OVC002
PROB40
TEMPO 2700/2706 0400 FZFG VV///



MET'MAP, your aeronautical weather chart ! - Copyright ORBIFLY December 2007 - Disclaimer

ORBIFLY MET'MAP TEAM :

Programming & Development : Alexandra Zaïnal
Original concept : Baudouin d'Aumeries
Technical & hardware support : Manuel Goepfert
Assistance : Marc-Olivier Méhu

Contact : metmap@orbifly.com




SOURCES & CREDITS :

   NOAA